createdAt,value
2019-03-08T00:02:14.362Z,6.50
2019-03-08T00:04:41.276Z,6.40
2019-03-08T00:07:07.963Z,6.40
2019-03-08T00:09:34.905Z,6.40
2019-03-08T00:12:01.672Z,6.30
2019-03-08T00:14:28.918Z,6.40
2019-03-08T00:16:55.602Z,6.40
2019-03-08T00:19:22.508Z,6.40
2019-03-08T00:21:49.278Z,6.40
2019-03-08T00:24:16.186Z,6.40
2019-03-08T00:26:42.878Z,6.40
2019-03-08T00:29:09.314Z,6.40
2019-03-08T00:31:36.461Z,6.50
2019-03-08T00:34:03.003Z,6.50
2019-03-08T00:36:29.886Z,6.50
2019-03-08T00:38:56.326Z,6.50
2019-03-08T00:41:22.777Z,6.50
2019-03-08T00:43:49.542Z,6.50
2019-03-08T00:46:16.446Z,6.50
2019-03-08T00:48:43.562Z,6.60
2019-03-08T00:51:10.242Z,6.60
2019-03-08T00:53:37.142Z,6.60
2019-03-08T00:56:03.593Z,6.60
2019-03-08T00:58:30.366Z,6.60
2019-03-08T01:00:57.146Z,6.60
2019-03-08T01:03:23.826Z,6.50
2019-03-08T01:05:50.572Z,6.40
2019-03-08T01:08:17.233Z,6.40
2019-03-08T01:10:44.162Z,6.30
2019-03-08T01:13:10.615Z,6.30
2019-03-08T01:15:37.298Z,6.20
2019-03-08T01:18:03.963Z,6.20
2019-03-08T01:20:30.668Z,6.20
2019-03-08T01:22:57.334Z,6.10
2019-03-08T01:25:23.794Z,6.10
2019-03-08T01:27:53.698Z,6.10
2019-03-08T01:30:20.617Z,6.10
2019-03-08T01:32:47.550Z,6.10
2019-03-08T01:35:13.994Z,6.10
2019-03-08T01:37:40.969Z,6.00
2019-03-08T01:40:07.668Z,6.00
2019-03-08T01:42:34.458Z,6.00
2019-03-08T01:45:01.131Z,6.00
2019-03-08T01:47:27.829Z,6.00
2019-03-08T01:49:54.615Z,6.00
2019-03-08T01:52:21.766Z,6.00
2019-03-08T01:54:48.774Z,6.00
2019-03-08T01:57:15.889Z,6.10
2019-03-08T01:59:42.574Z,6.10
2019-03-08T02:02:10.518Z,6.20
2019-03-08T02:04:40.349Z,6.10
2019-03-08T02:07:09.215Z,6.10
2019-03-08T02:09:36.222Z,6.20
2019-03-08T02:12:02.673Z,6.20
2019-03-08T02:14:29.686Z,6.30
2019-03-08T02:16:56.622Z,6.30
2019-03-08T02:19:23.156Z,6.30
2019-03-08T02:21:49.709Z,6.30
2019-03-08T02:24:16.246Z,6.30
2019-03-08T02:26:43.131Z,6.30
2019-03-08T02:29:10.126Z,6.30
2019-03-08T02:31:36.574Z,6.20
2019-03-08T02:34:03.011Z,6.20
2019-03-08T02:36:30.266Z,6.20
2019-03-08T02:38:56.707Z,6.20
2019-03-08T02:41:23.150Z,6.10
2019-03-08T02:43:50.037Z,6.10
2019-03-08T02:46:16.838Z,6.10
2019-03-08T02:48:43.536Z,6.10
2019-03-08T02:51:10.323Z,6.10
2019-03-08T02:53:37.226Z,6.10
2019-03-08T02:56:03.897Z,6.10
2019-03-08T02:58:30.805Z,6.10
2019-03-08T03:00:57.268Z,6.10
2019-03-08T03:03:24.192Z,6.10
2019-03-08T03:05:50.747Z,6.10
2019-03-08T03:08:17.179Z,6.10
2019-03-08T03:10:43.618Z,6.00
2019-03-08T03:13:10.774Z,6.10
2019-03-08T03:15:37.466Z,6.20
2019-03-08T03:18:03.922Z,6.20
2019-03-08T03:20:30.698Z,6.20
2019-03-08T03:22:57.502Z,6.20
2019-03-08T03:25:24.186Z,6.20
2019-03-08T03:27:50.863Z,6.20
2019-03-08T03:30:17.541Z,6.20
2019-03-08T03:32:44.319Z,6.10
2019-03-08T03:35:11.236Z,6.10
2019-03-08T03:37:38.242Z,6.10
2019-03-08T03:40:05.494Z,6.10
2019-03-08T03:42:32.649Z,6.00
2019-03-08T03:44:59.322Z,6.10
2019-03-08T03:47:25.999Z,6.10
2019-03-08T03:49:52.678Z,6.10
2019-03-08T03:52:19.370Z,6.10
2019-03-08T03:54:46.054Z,6.10
2019-03-08T03:57:13.189Z,6.10
2019-03-08T03:59:39.966Z,6.10
2019-03-08T04:02:06.650Z,6.10
2019-03-08T04:04:33.182Z,6.10
2019-03-08T04:06:59.638Z,6.10
2019-03-08T04:09:26.074Z,6.20
2019-03-08T04:11:52.871Z,6.10
2019-03-08T04:14:19.655Z,6.10
2019-03-08T04:16:46.398Z,6.00
2019-03-08T04:19:13.414Z,6.00
2019-03-08T04:21:40.118Z,6.00
2019-03-08T04:24:06.790Z,6.00
2019-03-08T04:26:33.250Z,6.00
2019-03-08T04:28:59.929Z,6.00
2019-03-08T04:31:26.578Z,6.00
2019-03-08T04:33:53.478Z,6.10
2019-03-08T04:36:20.375Z,6.10
2019-03-08T04:38:46.918Z,6.10
2019-03-08T04:41:14.290Z,6.10
2019-03-08T04:43:41.218Z,6.10
2019-03-08T04:46:07.924Z,6.10
2019-03-08T04:48:34.470Z,6.00
2019-03-08T04:51:01.709Z,6.00
2019-03-08T04:53:28.634Z,6.00
2019-03-08T04:55:55.526Z,6.00
2019-03-08T04:58:22.215Z,6.00
2019-03-08T05:00:49.223Z,6.00
2019-03-08T05:03:16.147Z,6.00
2019-03-08T05:05:44.858Z,6.00
2019-03-08T05:08:11.801Z,6.00
2019-03-08T05:10:38.564Z,6.00
2019-03-08T05:13:05.131Z,6.00
2019-03-08T05:15:31.913Z,6.00
2019-03-08T05:17:58.588Z,6.00
2019-03-08T05:20:25.380Z,6.00
2019-03-08T05:22:52.067Z,6.00
2019-03-08T05:25:18.519Z,6.00
2019-03-08T05:27:45.537Z,6.00
2019-03-08T05:30:12.083Z,6.00
2019-03-08T05:32:38.774Z,5.90
2019-03-08T05:35:05.327Z,6.00
2019-03-08T05:37:32.243Z,5.90
2019-03-08T05:39:59.162Z,5.90
2019-03-08T05:42:25.845Z,5.90
2019-03-08T05:44:52.618Z,6.00
2019-03-08T05:47:19.555Z,6.00
2019-03-08T05:49:46.578Z,6.00
2019-03-08T05:52:13.274Z,6.10
2019-03-08T05:54:40.290Z,6.10
2019-03-08T05:57:06.950Z,6.10
2019-03-08T05:59:33.950Z,6.20
2019-03-08T06:02:00.615Z,6.20
2019-03-08T06:04:27.775Z,6.30
2019-03-08T06:06:54.795Z,6.20
2019-03-08T06:09:21.681Z,6.30
2019-03-08T06:11:48.119Z,6.30
2019-03-08T06:14:15.076Z,6.30
2019-03-08T06:16:41.519Z,6.30
2019-03-08T06:19:08.194Z,6.30
2019-03-08T06:21:34.868Z,6.30
2019-03-08T06:24:02.426Z,6.30
2019-03-08T06:26:29.107Z,6.30
2019-03-08T06:28:55.556Z,6.30
2019-03-08T06:31:22.096Z,6.30
2019-03-08T06:33:48.870Z,6.30
2019-03-08T06:36:16.275Z,6.30
2019-03-08T06:38:43.224Z,6.40
2019-03-08T06:41:09.990Z,6.30
2019-03-08T06:43:36.430Z,6.30
2019-03-08T06:46:02.871Z,6.40
2019-03-08T06:48:29.554Z,6.40
2019-03-08T06:50:55.991Z,6.40
2019-03-08T06:53:22.434Z,6.40
2019-03-08T06:55:49.578Z,6.40
2019-03-08T06:58:24.570Z,6.40
2019-03-08T07:01:10.018Z,6.40
2019-03-08T07:03:36.734Z,6.40
2019-03-08T07:06:03.722Z,6.30
2019-03-08T07:08:30.638Z,6.30
2019-03-08T07:10:57.568Z,6.30
2019-03-08T07:13:24.014Z,6.20
2019-03-08T07:15:51.153Z,6.10
2019-03-08T07:18:17.830Z,6.00
2019-03-08T07:20:49.302Z,6.00
2019-03-08T07:23:33.066Z,6.00
2019-03-08T07:26:12.354Z,6.10
2019-03-08T07:28:57.766Z,6.10
2019-03-08T07:31:33.902Z,6.20
2019-03-08T07:34:26.152Z,6.20
2019-03-08T07:37:16.626Z,6.30
2019-03-08T07:39:48.875Z,6.40
2019-03-08T07:42:36.882Z,6.40
2019-03-08T07:45:28.042Z,6.50
2019-03-08T07:48:08.251Z,6.40
2019-03-08T07:51:09.847Z,6.40
2019-03-08T07:53:42.713Z,6.40
2019-03-08T07:56:29.963Z,6.40
2019-03-08T07:59:05.616Z,6.40
2019-03-08T08:02:10.059Z,6.50
2019-03-08T08:04:54.589Z,6.50
2019-03-08T08:07:40.726Z,6.60
2019-03-08T08:10:22.784Z,6.50
2019-03-08T08:13:14.994Z,6.50
2019-03-08T08:16:04.230Z,6.50
2019-03-08T08:18:36.764Z,6.40
2019-03-08T08:21:27.988Z,6.30
2019-03-08T08:24:04.578Z,6.20
2019-03-08T08:26:53.966Z,6.10
2019-03-08T08:29:40.510Z,6.10
2019-03-08T08:32:26.722Z,6.20
2019-03-08T08:35:00.286Z,6.30
2019-03-08T08:37:38.766Z,6.40
2019-03-08T08:40:25.247Z,6.50
2019-03-08T08:43:04.260Z,6.50
2019-03-08T08:45:37.939Z,6.60
2019-03-08T08:48:15.874Z,6.70
2019-03-08T08:51:00.597Z,6.90
2019-03-08T08:53:33.931Z,7.00
2019-03-08T08:56:24.402Z,7.80
2019-03-08T08:59:06.956Z,9.10
2019-03-08T09:01:40.118Z,8.80
2019-03-08T09:04:16.658Z,8.10
2019-03-08T09:07:05.791Z,7.80
2019-03-08T09:09:39.982Z,7.60
2019-03-08T09:12:11.977Z,7.40
2019-03-08T09:14:58.740Z,7.40
2019-03-08T09:17:43.414Z,7.50
2019-03-08T09:20:18.806Z,7.50
2019-03-08T09:23:00.265Z,7.50
2019-03-08T09:25:34.959Z,7.50
2019-03-08T09:28:12.115Z,7.50
2019-03-08T09:31:01.586Z,7.40
2019-03-08T09:33:32.794Z,7.30
2019-03-08T09:36:23.019Z,7.30
2019-03-08T09:39:09.514Z,7.30
2019-03-08T09:41:54.092Z,7.30
2019-03-08T09:44:37.766Z,7.40
2019-03-08T09:47:09.970Z,7.50
2019-03-08T09:49:43.107Z,7.60
2019-03-08T09:52:14.734Z,7.50
2019-03-08T09:54:52.106Z,7.40
2019-03-08T09:57:41.492Z,7.40
2019-03-08T10:00:24.018Z,7.50
2019-03-08T10:03:08.598Z,7.50
2019-03-08T10:06:02.046Z,7.40
2019-03-08T10:08:48.453Z,7.30
2019-03-08T10:11:20.178Z,7.30
2019-03-08T10:13:53.874Z,7.40
2019-03-08T10:16:34.744Z,7.40
2019-03-08T10:19:29.977Z,7.40
2019-03-08T10:22:11.646Z,7.30
2019-03-08T10:24:56.277Z,7.40
2019-03-08T10:27:46.030Z,7.40
2019-03-08T10:30:20.174Z,7.40
2019-03-08T10:32:52.467Z,7.50
2019-03-08T10:35:47.679Z,7.50
2019-03-08T10:38:31.390Z,7.40
2019-03-08T10:41:07.243Z,7.40
2019-03-08T10:43:47.667Z,7.30
2019-03-08T10:46:24.474Z,7.00
2019-03-08T10:48:58.655Z,6.70
2019-03-08T10:51:34.198Z,6.70
2019-03-08T10:54:18.886Z,6.80
2019-03-08T10:57:05.594Z,6.90
2019-03-08T10:59:41.227Z,6.90
2019-03-08T11:02:22.622Z,7.00
2019-03-08T11:04:55.830Z,7.10
2019-03-08T11:07:31.094Z,7.20
2019-03-08T11:10:21.654Z,7.20
2019-03-08T11:13:08.684Z,7.40
2019-03-08T11:15:53.341Z,8.30
2019-03-08T11:18:45.426Z,8.90
2019-03-08T11:21:31.549Z,9.20
2019-03-08T11:24:36.278Z,9.30
2019-03-08T11:27:21.087Z,10.70
2019-03-08T11:30:06.086Z,12.20
2019-03-08T11:32:39.882Z,12.50
2019-03-08T11:35:29.296Z,11.70
2019-03-08T11:38:06.810Z,12.20
2019-03-08T11:40:43.179Z,11.40
2019-03-08T11:43:20.478Z,11.30
2019-03-08T11:45:56.066Z,11.00
2019-03-08T11:48:29.099Z,10.40
2019-03-08T11:51:24.531Z,9.50
2019-03-08T11:54:16.758Z,9.50
2019-03-08T11:57:05.641Z,9.70
2019-03-08T11:59:52.083Z,11.20
2019-03-08T12:02:37.379Z,11.10
2019-03-08T12:05:15.107Z,11.50
2019-03-08T12:07:49.082Z,10.90
2019-03-08T12:10:26.445Z,10.20
2019-03-08T12:13:13.427Z,10.30
2019-03-08T12:16:06.246Z,10.70
2019-03-08T12:18:41.014Z,10.60
2019-03-08T12:21:30.099Z,9.90
2019-03-08T12:24:04.548Z,9.40
2019-03-08T12:26:41.182Z,9.00
2019-03-08T12:29:13.180Z,9.00
2019-03-08T12:32:17.626Z,9.10
2019-03-08T12:35:08.395Z,8.80
2019-03-08T12:37:52.834Z,8.50
2019-03-08T12:40:32.210Z,8.50
2019-03-08T12:43:09.890Z,8.40
2019-03-08T12:46:04.874Z,8.00
2019-03-08T12:48:44.858Z,7.70
2019-03-08T12:51:25.958Z,7.50
2019-03-08T12:54:19.512Z,7.20
2019-03-08T12:57:14.819Z,7.10
2019-03-08T13:00:01.326Z,6.90
2019-03-08T13:02:40.448Z,6.60
2019-03-08T13:05:25.535Z,6.20
2019-03-08T13:08:02.237Z,5.90
2019-03-08T13:10:28.912Z,5.80
2019-03-08T13:12:58.215Z,6.00
2019-03-08T13:15:24.662Z,6.50
2019-03-08T13:17:51.717Z,6.90
2019-03-08T13:20:18.513Z,7.00
2019-03-08T13:22:45.455Z,6.90
2019-03-08T13:25:12.430Z,6.70
2019-03-08T13:27:39.143Z,6.40
2019-03-08T13:30:08.350Z,6.30
2019-03-08T13:32:35.126Z,6.20
2019-03-08T13:35:01.810Z,6.10
2019-03-08T13:37:28.509Z,6.80
2019-03-08T13:39:55.206Z,7.90
2019-03-08T13:42:22.026Z,9.30
2019-03-08T13:44:48.946Z,10.80
2019-03-08T13:47:15.848Z,11.70
2019-03-08T13:49:42.830Z,11.90
2019-03-08T13:52:09.518Z,12.60
2019-03-08T13:54:36.253Z,13.00
2019-03-08T13:57:03.075Z,13.40
2019-03-08T13:59:30.122Z,13.40
2019-03-08T14:01:56.675Z,13.00
2019-03-08T14:04:23.421Z,12.00
2019-03-08T14:06:49.946Z,10.60
2019-03-08T14:09:16.750Z,10.20
2019-03-08T14:11:43.189Z,11.20
2019-03-08T14:14:09.696Z,11.90
2019-03-08T14:16:36.126Z,12.00
2019-03-08T14:19:02.950Z,12.20
2019-03-08T14:21:29.390Z,12.00
2019-03-08T14:23:55.962Z,11.60
2019-03-08T14:26:22.660Z,11.80
2019-03-08T14:28:49.158Z,11.60
2019-03-08T14:31:22.943Z,11.80
2019-03-08T14:33:50.190Z,11.60
2019-03-08T14:36:16.854Z,11.90
2019-03-08T14:38:43.322Z,11.50
2019-03-08T14:41:14.714Z,11.40
2019-03-08T14:43:55.698Z,11.90
2019-03-08T14:46:33.139Z,11.40
2019-03-08T14:48:59.946Z,11.30
2019-03-08T14:51:26.689Z,11.00
2019-03-08T14:53:53.407Z,11.60
2019-03-08T14:56:20.210Z,11.80
2019-03-08T14:58:46.647Z,11.80
2019-03-08T15:01:13.331Z,12.10
2019-03-08T15:03:43.877Z,11.90
2019-03-08T15:06:08.707Z,12.00
2019-03-08T15:08:35.406Z,11.80
2019-03-08T15:11:01.914Z,11.90
2019-03-08T15:13:28.617Z,11.10
2019-03-08T15:15:58.097Z,10.30
2019-03-08T15:18:25.894Z,10.40
2019-03-08T15:20:54.789Z,10.60
2019-03-08T15:23:20.949Z,10.70
2019-03-08T15:25:49.074Z,10.40
2019-03-08T15:28:16.274Z,10.20
2019-03-08T15:30:43.307Z,9.90
2019-03-08T15:33:09.996Z,9.20
2019-03-08T15:35:36.690Z,9.10
2019-03-08T15:38:03.370Z,9.20
2019-03-08T15:40:33.120Z,8.90
2019-03-08T15:42:58.178Z,8.40
2019-03-08T15:45:24.691Z,8.30
2019-03-08T15:47:51.143Z,8.60
2019-03-08T15:50:18.318Z,9.10
2019-03-08T15:52:44.756Z,9.40
2019-03-08T15:55:11.231Z,9.50
2019-03-08T15:57:37.698Z,9.40
2019-03-08T16:00:05.554Z,9.30
2019-03-08T16:02:32.937Z,9.50
2019-03-08T16:04:59.721Z,9.40
2019-03-08T16:07:27.215Z,9.40
2019-03-08T16:09:54.475Z,9.30
2019-03-08T16:12:20.994Z,9.00
2019-03-08T16:14:48.081Z,8.80
2019-03-08T16:17:15.226Z,8.30
2019-03-08T16:19:41.926Z,8.00
2019-03-08T16:22:08.971Z,8.10
2019-03-08T16:24:35.651Z,8.10
2019-03-08T16:27:03.587Z,8.10
2019-03-08T16:29:30.369Z,8.30
2019-03-08T16:32:02.803Z,8.00
2019-03-08T16:34:29.234Z,7.60
2019-03-08T16:37:08.099Z,7.20
2019-03-08T16:39:46.485Z,7.00
2019-03-08T16:42:38.902Z,6.80
2019-03-08T16:45:40.435Z,6.60
2019-03-08T16:48:13.603Z,6.40
2019-03-08T16:51:06.086Z,6.20
2019-03-08T16:53:55.838Z,6.10
2019-03-08T16:56:54.061Z,6.00
2019-03-08T16:59:30.115Z,5.90
2019-03-08T17:02:16.491Z,5.80
2019-03-08T17:04:53.389Z,5.80
2019-03-08T17:07:30.814Z,5.70
2019-03-08T17:10:05.636Z,5.70
2019-03-08T17:12:47.933Z,5.60
2019-03-08T17:15:48.979Z,5.70
2019-03-08T17:18:33.704Z,5.60
2019-03-08T17:21:09.802Z,5.60
2019-03-08T17:23:41.590Z,5.60
2019-03-08T17:26:22.538Z,5.50
2019-03-08T17:29:01.074Z,5.40
2019-03-08T17:31:42.991Z,5.40
2019-03-08T17:34:27.249Z,5.30
2019-03-08T17:37:00.132Z,5.20
2019-03-08T17:40:04.603Z,5.10
2019-03-08T17:42:49.398Z,5.10
2019-03-08T17:45:25.810Z,5.00
2019-03-08T17:48:00.707Z,4.90
2019-03-08T17:50:45.682Z,4.90
2019-03-08T17:53:30.850Z,4.90
2019-03-08T17:56:15.805Z,4.90
2019-03-08T17:59:02.430Z,4.90
2019-03-08T18:01:35.298Z,5.00
2019-03-08T18:04:20.534Z,5.00
2019-03-08T18:06:59.811Z,5.00
2019-03-08T18:09:45.062Z,5.10
2019-03-08T18:12:21.278Z,5.10
2019-03-08T18:15:03.946Z,5.10
2019-03-08T18:17:45.730Z,5.10
2019-03-08T18:20:32.110Z,5.10
2019-03-08T18:23:23.950Z,5.10
2019-03-08T18:26:10.479Z,5.20
2019-03-08T18:29:00.358Z,5.20
2019-03-08T18:31:39.978Z,5.30
2019-03-08T18:34:29.659Z,5.30
2019-03-08T18:37:24.946Z,5.40
2019-03-08T18:40:13.950Z,5.40
2019-03-08T18:43:06.209Z,5.40
2019-03-08T18:45:43.046Z,5.40
2019-03-08T18:48:28.216Z,5.30
2019-03-08T18:51:17.538Z,5.20
2019-03-08T18:54:03.667Z,5.10
2019-03-08T18:56:48.396Z,4.90
2019-03-08T18:59:46.369Z,4.90
2019-03-08T19:02:31.473Z,4.80
2019-03-08T19:05:13.063Z,4.80
2019-03-08T19:07:59.554Z,4.90
2019-03-08T19:10:47.541Z,4.90
2019-03-08T19:13:32.256Z,4.80
2019-03-08T19:16:07.675Z,4.80
2019-03-08T19:18:54.153Z,4.70
2019-03-08T19:21:39.143Z,4.60
2019-03-08T19:24:26.922Z,4.50
2019-03-08T19:27:16.290Z,4.50
2019-03-08T19:29:55.326Z,4.40
2019-03-08T19:32:30.226Z,4.40
2019-03-08T19:35:05.968Z,4.20
2019-03-08T19:38:01.561Z,4.20
2019-03-08T19:40:56.775Z,4.10
2019-03-08T19:43:58.238Z,4.10
2019-03-08T19:46:42.798Z,4.10
2019-03-08T19:49:23.776Z,4.00
2019-03-08T19:52:02.324Z,3.90
2019-03-08T19:54:48.449Z,3.90
2019-03-08T19:57:33.182Z,3.80
2019-03-08T20:00:19.355Z,3.70
2019-03-08T20:02:52.330Z,3.70
2019-03-08T20:05:50.806Z,3.60
2019-03-08T20:08:40.189Z,3.60
2019-03-08T20:11:13.039Z,3.70
2019-03-08T20:13:46.623Z,3.60
2019-03-08T20:16:38.827Z,3.60
2019-03-08T20:19:23.579Z,3.60
2019-03-08T20:22:16.050Z,3.40
2019-03-08T20:25:00.412Z,3.40
2019-03-08T20:27:43.030Z,3.30
2019-03-08T20:30:36.415Z,3.40
2019-03-08T20:33:29.618Z,3.40
2019-03-08T20:36:14.481Z,3.40
2019-03-08T20:39:12.994Z,3.40
2019-03-08T20:41:46.835Z,3.50
2019-03-08T20:44:27.748Z,3.50
2019-03-08T20:46:58.462Z,3.60
2019-03-08T20:49:25.423Z,3.60
2019-03-08T20:51:52.303Z,3.60
2019-03-08T20:54:19.008Z,3.70
2019-03-08T20:56:46.026Z,3.90
2019-03-08T20:59:12.770Z,3.80
2019-03-08T21:01:39.219Z,3.80
2019-03-08T21:04:06.262Z,3.90
2019-03-08T21:06:32.950Z,3.90
2019-03-08T21:08:59.666Z,3.90
2019-03-08T21:11:27.248Z,3.90
2019-03-08T21:13:53.979Z,4.00
2019-03-08T21:16:20.722Z,4.00
2019-03-08T21:18:48.206Z,4.10
2019-03-08T21:21:14.900Z,4.10
2019-03-08T21:23:41.604Z,4.10
2019-03-08T21:26:08.152Z,4.00
2019-03-08T21:28:34.917Z,4.10
2019-03-08T21:31:01.638Z,4.10
2019-03-08T21:33:28.218Z,4.20
2019-03-08T21:35:54.694Z,4.20
2019-03-08T21:38:21.446Z,4.30
2019-03-08T21:40:48.162Z,4.30
2019-03-08T21:43:14.598Z,4.30
2019-03-08T21:45:41.490Z,4.40
2019-03-08T21:48:08.174Z,4.40
2019-03-08T21:50:34.888Z,4.40
2019-03-08T21:53:01.561Z,4.40
2019-03-08T21:55:28.034Z,4.40
2019-03-08T21:57:54.698Z,4.40
2019-03-08T22:00:21.584Z,4.30
2019-03-08T22:02:48.490Z,4.30
2019-03-08T22:05:18.079Z,4.20
2019-03-08T22:07:44.792Z,4.20
2019-03-08T22:10:29.651Z,4.20
2019-03-08T22:12:56.326Z,4.20
2019-03-08T22:15:23.250Z,4.20
2019-03-08T22:17:49.686Z,4.30
2019-03-08T22:20:16.150Z,4.30
2019-03-08T22:22:42.817Z,4.40
2019-03-08T22:25:09.518Z,4.40
2019-03-08T22:27:37.558Z,4.40
2019-03-08T22:30:04.740Z,4.40
2019-03-08T22:32:31.430Z,4.40
2019-03-08T22:34:58.130Z,4.40
2019-03-08T22:37:25.210Z,4.40
2019-03-08T22:39:51.646Z,4.40
2019-03-08T22:42:18.350Z,4.40
2019-03-08T22:44:45.026Z,4.40
2019-03-08T22:47:11.511Z,4.40
2019-03-08T22:49:38.426Z,4.40
2019-03-08T22:52:05.380Z,4.40
2019-03-08T22:54:32.154Z,4.40
2019-03-08T22:56:58.873Z,4.40
2019-03-08T22:59:26.099Z,4.40
2019-03-08T23:01:53.635Z,4.40
2019-03-08T23:04:20.314Z,4.40
2019-03-08T23:06:46.823Z,4.40
2019-03-08T23:09:14.411Z,4.40
2019-03-08T23:11:40.881Z,4.50
2019-03-08T23:14:07.635Z,4.50
2019-03-08T23:16:34.111Z,4.50
2019-03-08T23:19:01.020Z,4.40
2019-03-08T23:21:27.726Z,4.40
2019-03-08T23:23:54.638Z,4.40
2019-03-08T23:26:21.582Z,4.30
2019-03-08T23:28:51.691Z,4.30
2019-03-08T23:31:23.002Z,4.20
2019-03-08T23:33:49.673Z,4.20
2019-03-08T23:36:16.378Z,4.20
2019-03-08T23:38:43.065Z,4.20
2019-03-08T23:41:10.002Z,4.10
2019-03-08T23:43:36.872Z,4.10
2019-03-08T23:46:03.690Z,4.10
2019-03-08T23:48:30.377Z,4.10
2019-03-08T23:50:57.330Z,4.10
2019-03-08T23:53:24.014Z,4.20
2019-03-08T23:55:50.750Z,4.30
2019-03-08T23:58:17.735Z,4.30
